Time;durP1;ratioP1;P1;durP2;ratioP2;P2;SDS_P1;SDS_P2;PMS_P1;PMS_P2;Temp;Humidity;BMP_temperature;BMP_pressure;BME280_temperature;BME280_humidity;BME280_pressure;Samples;Min_cycle;Max_cycle;Signal;HPM_P1;HPM_P2
2022/01/09 00:00:40;;;;;;;17.23;14.23;;;;;;;4.01;70.84;94081.41;6168244;23;20253;-62
2022/01/09 00:03:07;;;;;;;19.63;17.13;;;;;;;4.02;70.99;94088.28;6168831;23;20182;-62
2022/01/09 00:05:33;;;;;;;21.90;16.77;;;;;;;3.95;71.32;94094.00;6192484;23;20202;-62
2022/01/09 00:07:58;;;;;;;21.80;16.40;;;;;;;3.93;71.17;94079.53;6191756;23;20261;-63
2022/01/09 00:10:26;;;;;;;20.23;15.90;;;;;;;4.13;70.75;94093.34;6193897;23;20220;-64
2022/01/09 00:12:52;;;;;;;18.37;15.80;;;;;;;4.09;70.65;94085.00;6191632;23;20208;-62
2022/01/09 00:15:18;;;;;;;18.83;15.70;;;;;;;3.97;71.00;94089.50;6168666;23;20182;-63
2022/01/09 00:17:44;;;;;;;18.10;15.33;;;;;;;3.93;71.36;94088.13;6169391;23;20213;-65
2022/01/09 00:20:13;;;;;;;19.10;15.83;;;;;;;3.95;71.81;94080.19;6193816;23;20208;-63
2022/01/09 00:22:46;;;;;;;18.93;14.57;;;;;;;4.00;71.66;94090.19;6167760;23;20202;-63
2022/01/09 00:25:17;;;;;;;18.30;14.90;;;;;;;4.06;71.35;94084.44;6193463;23;20190;-63
2022/01/09 00:27:43;;;;;;;18.63;14.77;;;;;;;4.05;71.11;94088.00;6192740;23;20201;-65
2022/01/09 00:30:12;;;;;;;19.50;15.37;;;;;;;4.03;71.68;94085.53;6168063;23;20186;-63
2022/01/09 00:32:38;;;;;;;17.30;13.77;;;;;;;4.01;72.00;94079.66;6192477;23;20225;-62
2022/01/09 00:35:05;;;;;;;19.77;15.60;;;;;;;4.05;71.65;94078.44;6168705;23;20237;-64
2022/01/09 00:37:31;;;;;;;21.40;14.60;;;;;;;4.06;71.33;94063.63;6168718;23;20276;-63
2022/01/09 00:39:58;;;;;;;20.57;16.00;;;;;;;4.04;71.58;94068.16;6167995;23;20205;-63
2022/01/09 00:42:23;;;;;;;22.67;15.03;;;;;;;4.25;71.44;94070.63;6168391;23;20189;-63
2022/01/09 00:44:49;;;;;;;17.33;14.80;;;;;;;4.22;71.05;94070.91;6194258;23;20178;-63
2022/01/09 00:47:14;;;;;;;18.27;14.60;;;;;;;4.11;71.42;94067.47;6168400;23;20207;-64
2022/01/09 00:49:40;;;;;;;19.23;15.43;;;;;;;4.13;71.29;94064.75;6168230;23;20213;-64
2022/01/09 00:52:06;;;;;;;20.20;15.40;;;;;;;3.95;71.48;94065.41;6168694;23;20190;-67
2022/01/09 00:54:31;;;;;;;18.57;15.60;;;;;;;3.92;72.05;94057.88;6171224;23;20194;-64
2022/01/09 00:56:57;;;;;;;18.43;14.67;;;;;;;3.94;72.15;94055.16;6170172;23;20182;-64
2022/01/09 00:59:22;;;;;;;18.10;14.73;;;;;;;4.09;71.71;94065.97;6169769;23;20205;-63
2022/01/09 01:01:48;;;;;;;19.43;15.17;;;;;;;3.98;71.42;94074.72;6195012;23;20194;-64
2022/01/09 01:04:14;;;;;;;19.10;15.20;;;;;;;4.07;71.58;94083.50;6169879;23;20213;-65
2022/01/09 01:06:39;;;;;;;19.73;15.17;;;;;;;4.15;71.21;94084.47;6169514;23;20198;-66
2022/01/09 01:09:05;;;;;;;18.97;14.27;;;;;;;4.14;70.83;94087.19;6170779;23;20186;-63
2022/01/09 01:11:31;;;;;;;18.07;13.70;;;;;;;4.09;71.53;94071.16;6170003;23;20248;-63
2022/01/09 01:13:56;;;;;;;16.03;13.70;;;;;;;3.94;72.12;94052.53;6193612;23;20205;-65
2022/01/09 01:16:22;;;;;;;15.97;13.60;;;;;;;3.94;72.09;94053.34;6170198;23;20210;-62
2022/01/09 01:18:47;;;;;;;17.13;14.07;;;;;;;3.89;72.17;94049.53;6169558;23;20194;-63
2022/01/09 01:21:13;;;;;;;17.07;13.37;;;;;;;3.85;72.35;94045.53;6170146;23;20186;-67
2022/01/09 01:23:39;;;;;;;17.93;13.63;;;;;;;3.86;72.33;94045.41;6169509;23;20205;-64
2022/01/09 01:26:05;;;;;;;16.90;13.37;;;;;;;3.93;72.20;94046.53;6196227;23;20241;-62
2022/01/09 01:28:31;;;;;;;17.20;13.17;;;;;;;4.03;72.24;94040.50;6170212;23;20194;-63
2022/01/09 01:30:57;;;;;;;17.03;13.80;;;;;;;3.95;71.49;94034.19;6193929;23;20198;-64
2022/01/09 01:33:23;;;;;;;19.30;13.73;;;;;;;3.95;71.72;94028.16;6194402;23;20271;-65
2022/01/09 01:35:49;;;;;;;14.40;12.27;;;;;;;3.94;71.85;94045.56;6169003;23;20206;-62
2022/01/09 01:38:15;;;;;;;15.90;12.60;;;;;;;4.00;71.83;94044.19;6194365;23;20205;-63
2022/01/09 01:40:41;;;;;;;17.33;13.17;;;;;;;3.89;72.37;94034.72;6194843;23;20198;-63
2022/01/09 01:43:07;;;;;;;17.67;14.00;;;;;;;3.90;72.50;94031.19;6169237;23;20190;-62
2022/01/09 01:45:33;;;;;;;17.10;13.17;;;;;;;3.90;72.27;94033.78;6195598;23;20217;-63
2022/01/09 01:48:09;;;;;;;17.40;12.97;;;;;;;3.82;72.29;94023.22;6195277;23;20213;-62
2022/01/09 01:50:38;;;;;;;16.60;13.17;;;;;;;3.84;72.83;94028.28;6195123;23;20193;-63
2022/01/09 01:53:11;;;;;;;16.27;13.47;;;;;;;3.93;72.46;94023.13;6193773;23;20202;-62
2022/01/09 01:55:38;;;;;;;16.43;13.43;;;;;;;3.96;72.16;94014.22;6169709;23;20244;-66
2022/01/09 01:58:05;;;;;;;14.70;12.63;;;;;;;4.01;71.63;93998.19;6195300;23;20242;-62
2022/01/09 02:00:32;;;;;;;16.03;12.20;;;;;;;3.90;72.04;93997.38;6195858;23;20242;-62
2022/01/09 02:02:57;;;;;;;14.23;12.43;;;;;;;3.92;71.92;94007.63;6170276;23;20186;-61
2022/01/09 02:05:23;;;;;;;16.20;13.10;;;;;;;3.92;72.02;94000.66;6194373;23;20208;-62
2022/01/09 02:07:51;;;;;;;16.23;12.13;;;;;;;3.92;71.55;93995.44;6168456;23;20210;-62
2022/01/09 02:10:17;;;;;;;16.07;12.47;;;;;;;3.94;71.99;93996.13;6195086;23;20194;-62
2022/01/09 02:12:43;;;;;;;14.90;12.50;;;;;;;4.06;71.78;93991.59;6169348;23;20205;-64
2022/01/09 02:15:46;;;;;;;19.37;13.87;;;;;;;3.94;71.48;93985.72;6194107;23;20178;-63
2022/01/09 02:18:20;;;;;;;15.73;12.43;;;;;;;3.97;71.43;93980.25;6075633;23;20204;-62
2022/01/09 02:20:47;;;;;;;20.03;14.10;;;;;;;3.86;71.69;93983.00;6050516;23;20223;-66
2022/01/09 02:23:15;;;;;;;17.40;14.30;;;;;;;3.79;72.44;93974.09;6075016;23;20235;-64
2022/01/09 02:25:41;;;;;;;15.03;13.43;;;;;;;3.86;71.89;93980.41;6050211;23;20201;-64
2022/01/09 02:28:09;;;;;;;18.83;14.60;;;;;;;3.80;72.38;93967.94;6051486;23;20205;-64
2022/01/09 02:30:35;;;;;;;15.40;13.77;;;;;;;3.63;72.77;93960.81;6051667;23;20189;-64
2022/01/09 02:33:02;;;;;;;16.40;14.03;;;;;;;3.71;72.67;93966.16;6075347;23;20188;-62
2022/01/09 02:35:28;;;;;;;15.87;13.23;;;;;;;3.60;72.35;93951.50;6076195;23;20255;-62
2022/01/09 02:37:54;;;;;;;16.73;13.47;;;;;;;3.54;72.57;93957.25;6075217;23;20208;-65
2022/01/09 02:40:22;;;;;;;17.80;13.47;;;;;;;3.44;73.31;93956.41;6075631;23;20251;-66
2022/01/09 02:42:48;;;;;;;16.40;13.47;;;;;;;3.32;73.73;93950.53;6050054;23;20271;-62
2022/01/09 02:45:15;;;;;;;15.73;13.03;;;;;;;3.38;73.88;93941.38;6074674;23;20195;-63
2022/01/09 02:47:42;;;;;;;15.83;13.57;;;;;;;3.54;73.16;93941.66;6050011;23;20208;-64
2022/01/09 02:50:30;;;;;;;16.00;13.37;;;;;;;3.51;72.98;93932.34;6074112;23;20320;-61
2022/01/09 02:52:58;;;;;;;16.60;12.37;;;;;;;3.46;72.59;93924.13;6150115;23;20205;-62
2022/01/09 02:55:25;;;;;;;15.97;13.13;;;;;;;3.61;72.85;93934.13;6195109;23;20194;-62
2022/01/09 02:57:56;;;;;;;16.27;13.13;;;;;;;3.56;72.66;93944.13;6193832;23;20198;-62
2022/01/09 03:00:28;;;;;;;17.57;13.07;;;;;;;3.51;73.21;93931.53;6194678;23;20189;-60
2022/01/09 03:02:54;;;;;;;15.17;12.87;;;;;;;3.53;73.19;93935.66;6194558;23;20202;-63
2022/01/09 03:05:21;;;;;;;17.90;13.60;;;;;;;3.51;73.26;93931.53;6168438;23;20204;-63
2022/01/09 03:07:46;;;;;;;16.63;13.30;;;;;;;3.49;73.44;93929.06;6168789;23;20256;-62
2022/01/09 03:10:16;;;;;;;15.87;12.97;;;;;;;3.57;73.01;93925.78;6194956;23;20197;-61
2022/01/09 03:12:42;;;;;;;17.27;13.27;;;;;;;3.55;73.15;93927.69;6169049;23;20194;-65
2022/01/09 03:15:08;;;;;;;19.10;13.23;;;;;;;3.58;72.95;93926.59;6169737;23;20178;-63
2022/01/09 03:17:35;;;;;;;17.90;13.50;;;;;;;3.59;73.01;93923.06;6190652;23;20213;-65
2022/01/09 03:20:01;;;;;;;16.67;13.20;;;;;;;3.47;73.12;93917.97;6192638;23;20265;-62
2022/01/09 03:22:26;;;;;;;15.73;12.80;;;;;;;3.45;73.18;93917.31;6193653;23;20217;-64
2022/01/09 03:24:52;;;;;;;15.27;12.50;;;;;;;3.37;73.39;93904.19;6166352;23;20257;-62
2022/01/09 03:27:17;;;;;;;16.00;12.37;;;;;;;3.36;73.79;93912.91;6168272;23;20185;-63
2022/01/09 03:29:44;;;;;;;17.03;12.23;;;;;;;3.47;73.71;93917.16;6168619;23;20196;-65
2022/01/09 03:32:10;;;;;;;16.87;12.80;;;;;;;3.49;72.98;93910.88;6169104;23;20197;-66
2022/01/09 03:34:36;;;;;;;14.90;12.17;;;;;;;3.51;73.31;93910.75;6167929;23;20198;-65
2022/01/09 03:37:03;;;;;;;14.87;12.47;;;;;;;3.52;73.59;93912.38;6167018;23;20217;-62
2022/01/09 03:39:28;;;;;;;14.47;12.90;;;;;;;3.68;72.82;93911.84;6193277;23;20200;-66
2022/01/09 03:41:56;;;;;;;14.77;12.30;;;;;;;3.70;72.63;93909.94;6193979;23;20178;-66
2022/01/09 03:44:21;;;;;;;13.80;12.03;;;;;;;3.55;72.91;93901.69;6168305;23;20236;-62
2022/01/09 03:46:47;;;;;;;15.03;12.27;;;;;;;3.57;73.11;93905.00;6168948;23;20202;-63
2022/01/09 03:49:12;;;;;;;16.47;12.33;;;;;;;3.54;73.05;93908.69;6168783;23;20185;-63
2022/01/09 03:51:39;;;;;;;21.57;12.80;;;;;;;3.43;73.20;93903.63;6168340;23;20261;-64
2022/01/09 03:54:05;;;;;;;14.73;12.33;;;;;;;3.71;73.50;93899.38;6194373;23;20181;-63
2022/01/09 03:56:32;;;;;;;16.93;12.67;;;;;;;3.56;72.67;93892.16;6194211;23;20198;-65
2022/01/09 03:58:57;;;;;;;13.80;12.07;;;;;;;3.49;73.36;93890.06;6194155;23;20194;-65
2022/01/09 04:01:23;;;;;;;15.43;12.37;;;;;;;3.57;73.34;93898.97;6168386;23;20194;-66
2022/01/09 04:03:48;;;;;;;17.00;12.63;;;;;;;3.73;72.88;93896.66;6168236;23;20200;-64
2022/01/09 04:06:14;;;;;;;16.97;14.40;;;;;;;3.74;72.50;93895.66;6194852;23;20237;-62
2022/01/09 04:08:39;;;;;;;16.67;13.67;;;;;;;3.73;72.51;93889.66;6168579;23;20198;-61
2022/01/09 04:11:06;;;;;;;15.17;12.70;;;;;;;3.66;72.56;93887.75;6168248;23;20194;-63
2022/01/09 04:13:32;;;;;;;18.93;13.07;;;;;;;3.65;72.35;93905.13;6168455;23;20202;-61
2022/01/09 04:15:58;;;;;;;14.87;13.17;;;;;;;3.62;72.44;93902.81;6193799;23;20204;-63
2022/01/09 04:18:24;;;;;;;15.77;13.53;;;;;;;3.63;72.46;93904.44;6168252;23;20182;-64
2022/01/09 04:20:51;;;;;;;16.87;12.57;;;;;;;3.58;72.80;93898.81;6168831;23;20198;-64
2022/01/09 04:23:18;;;;;;;15.93;12.63;;;;;;;3.66;72.85;93898.16;6194926;23;20209;-65
2022/01/09 04:25:45;;;;;;;17.90;12.80;;;;;;;3.69;72.47;93903.09;6168459;23;20210;-62
2022/01/09 04:28:12;;;;;;;15.53;12.80;;;;;;;3.59;73.15;93900.47;6195180;23;20205;-62
2022/01/09 04:30:37;;;;;;;17.40;12.80;;;;;;;3.63;72.66;93891.44;6195124;23;20178;-62
2022/01/09 04:33:03;;;;;;;14.07;11.37;;;;;;;3.64;73.12;93884.47;6169183;23;20189;-63
2022/01/09 04:35:29;;;;;;;16.20;12.20;;;;;;;3.77;72.75;93879.81;6170159;23;20194;-66
2022/01/09 04:37:55;;;;;;;15.23;12.13;;;;;;;3.69;72.60;93890.09;6170017;23;20208;-62
2022/01/09 04:40:21;;;;;;;14.53;11.83;;;;;;;3.68;72.65;93875.44;6170747;23;20198;-64
2022/01/09 04:42:55;;;;;;;13.63;11.27;;;;;;;3.80;72.63;93886.53;6169995;23;20197;-62
2022/01/09 04:45:22;;;;;;;14.73;11.53;;;;;;;3.83;72.36;93884.47;6196323;23;20169;-63
2022/01/09 04:47:50;;;;;;;14.20;11.23;;;;;;;3.83;72.10;93887.06;6194962;23;20221;-64
2022/01/09 04:50:22;;;;;;;15.37;11.40;;;;;;;3.75;72.29;93895.56;6168879;23;20205;-65
2022/01/09 04:52:50;;;;;;;14.23;10.77;;;;;;;3.85;72.33;93892.94;6194005;23;20202;-65
2022/01/09 04:55:15;;;;;;;12.67;10.33;;;;;;;3.89;72.30;93885.69;6169993;23;20217;-65
2022/01/09 04:57:41;;;;;;;16.67;9.63;;;;;;;3.93;72.22;93882.69;6196112;23;20190;-63
2022/01/09 05:00:07;;;;;;;15.57;10.63;;;;;;;4.02;72.17;93898.41;6171765;23;20193;-65
2022/01/09 05:02:33;;;;;;;14.03;11.30;;;;;;;4.06;71.84;93884.94;6195706;23;20217;-63
2022/01/09 05:04:59;;;;;;;12.20;10.10;;;;;;;4.11;71.46;93889.75;6194926;23;20202;-61
2022/01/09 05:07:24;;;;;;;10.87;9.50;;;;;;;4.08;71.43;93898.66;6195315;23;20214;-63
2022/01/09 05:09:50;;;;;;;12.37;9.83;;;;;;;4.12;71.25;93891.41;6169026;23;20204;-62
2022/01/09 05:12:16;;;;;;;10.67;8.87;;;;;;;4.10;71.36;93895.91;6170576;23;20178;-62
2022/01/09 05:14:41;;;;;;;13.20;9.93;;;;;;;3.97;71.34;93884.03;6170106;23;20249;-64
2022/01/09 05:17:07;;;;;;;10.20;8.93;;;;;;;4.08;71.78;93893.44;6170336;23;20210;-63
2022/01/09 05:19:34;;;;;;;13.03;9.70;;;;;;;4.18;71.03;93881.25;6169990;23;20209;-63
2022/01/09 05:22:01;;;;;;;13.73;9.83;;;;;;;4.10;70.82;93888.94;6169898;23;20194;-65
2022/01/09 05:24:27;;;;;;;12.40;10.27;;;;;;;4.07;71.45;93885.81;6169584;23;20198;-65
2022/01/09 05:26:54;;;;;;;12.33;10.20;;;;;;;4.07;71.52;93888.41;6194220;23;20181;-65
2022/01/09 05:29:20;;;;;;;13.50;11.27;;;;;;;3.93;71.69;93884.47;6194608;23;20496;-67
2022/01/09 05:31:48;;;;;;;12.20;10.67;;;;;;;3.81;72.40;93870.78;6168881;23;20194;-66
2022/01/09 05:34:14;;;;;;;12.43;9.80;;;;;;;3.81;72.35;93870.78;6195060;23;20202;-64
2022/01/09 05:36:40;;;;;;;11.17;9.70;;;;;;;3.89;72.24;93868.28;6168920;23;20271;-63
2022/01/09 05:39:05;;;;;;;12.77;9.93;;;;;;;3.80;72.65;93876.13;6168139;23;20195;-64
2022/01/09 05:41:31;;;;;;;13.17;9.73;;;;;;;3.86;72.58;93873.78;6169553;23;20202;-63
2022/01/09 05:43:56;;;;;;;11.77;10.27;;;;;;;3.97;72.16;93875.41;6169036;23;20194;-63
2022/01/09 05:46:22;;;;;;;13.43;10.60;;;;;;;3.84;72.49;93870.50;6169361;23;20194;-62
2022/01/09 05:48:48;;;;;;;12.50;10.97;;;;;;;3.92;72.21;93868.00;6168825;23;20253;-65
2022/01/09 05:51:13;;;;;;;13.27;10.87;;;;;;;4.00;72.40;93869.09;6169389;23;20237;-63
2022/01/09 05:53:39;;;;;;;15.67;11.60;;;;;;;3.86;72.30;93872.97;6168258;23;20201;-64
2022/01/09 05:56:04;;;;;;;12.27;10.93;;;;;;;3.79;72.82;93883.09;6193315;23;20202;-63
2022/01/09 05:58:30;;;;;;;12.87;11.13;;;;;;;3.77;73.04;93882.44;6193459;23;20273;-63
2022/01/09 06:00:56;;;;;;;13.50;11.33;;;;;;;3.98;72.80;93880.47;6193598;23;20197;-63
2022/01/09 06:03:21;;;;;;;13.63;11.30;;;;;;;3.91;72.56;93883.78;6167554;23;20228;-61
2022/01/09 06:05:47;;;;;;;15.83;10.63;;;;;;;3.83;73.33;93873.25;6167601;23;20197;-61
2022/01/09 06:08:12;;;;;;;14.23;11.43;;;;;;;3.95;72.65;93864.31;6169216;23;20256;-62
2022/01/09 06:10:37;;;;;;;12.83;11.40;;;;;;;3.91;72.69;93865.56;6169495;23;20194;-64
2022/01/09 06:13:03;;;;;;;13.97;12.13;;;;;;;4.00;72.75;93866.50;6168426;23;20206;-62
2022/01/09 06:15:28;;;;;;;14.73;12.50;;;;;;;4.10;72.54;93865.50;6193958;23;20190;-63
2022/01/09 06:17:54;;;;;;;14.27;12.77;;;;;;;4.18;72.20;93868.22;6168839;23;20197;-64
2022/01/09 06:20:19;;;;;;;17.60;13.87;;;;;;;4.24;72.01;93869.44;6193809;23;20206;-62
2022/01/09 06:22:45;;;;;;;16.97;14.97;;;;;;;4.25;72.12;93863.28;6166706;23;20197;-64
2022/01/09 06:25:12;;;;;;;19.30;14.63;;;;;;;4.33;71.89;93860.81;6192579;23;20272;-67
2022/01/09 06:27:37;;;;;;;20.90;15.87;;;;;;;4.30;71.86;93855.03;6167281;23;20189;-64
2022/01/09 06:30:05;;;;;;;15.50;13.83;;;;;;;4.34;71.76;93866.81;6166688;23;20281;-63
2022/01/09 06:32:31;;;;;;;18.63;15.10;;;;;;;4.40;71.62;93867.06;6165580;23;20252;-63
2022/01/09 06:34:57;;;;;;;17.97;15.33;;;;;;;4.55;71.34;93859.63;6192082;23;20202;-63
2022/01/09 06:37:23;;;;;;;19.77;15.07;;;;;;;4.55;71.17;93853.59;6190962;23;20297;-63
2022/01/09 06:39:49;;;;;;;17.33;13.83;;;;;;;4.48;71.17;93855.94;6168010;23;20217;-62
2022/01/09 06:42:14;;;;;;;15.93;13.40;;;;;;;4.59;71.18;93854.94;6168942;23;20236;-64
2022/01/09 06:44:40;;;;;;;17.23;13.60;;;;;;;4.54;71.56;93862.34;6168552;23;20205;-63
2022/01/09 06:47:06;;;;;;;17.60;13.17;;;;;;;4.58;71.21;93861.13;6192591;23;20284;-62
2022/01/09 06:49:32;;;;;;;15.63;11.80;;;;;;;4.63;70.63;93861.50;6165761;23;20213;-62
2022/01/09 06:51:58;;;;;;;13.53;11.10;;;;;;;4.58;70.57;93854.13;6190046;23;20198;-63
2022/01/09 06:54:42;;;;;;;14.13;12.30;;;;;;;4.70;70.21;93857.34;6165633;23;20190;-62
2022/01/09 06:57:07;;;;;;;13.43;10.80;;;;;;;4.58;70.31;93861.13;6192889;23;20170;-62
2022/01/09 06:59:33;;;;;;;14.80;12.10;;;;;;;4.53;70.04;93845.91;6169036;23;20194;-63
2022/01/09 07:01:58;;;;;;;13.33;11.57;;;;;;;4.52;70.46;93854.69;6168716;23;20257;-64
2022/01/09 07:04:24;;;;;;;13.57;11.10;;;;;;;4.51;70.74;93858.25;6168193;23;20194;-61
2022/01/09 07:06:49;;;;;;;12.80;10.70;;;;;;;4.57;70.24;93855.09;6167601;23;20206;-62
2022/01/09 07:09:15;;;;;;;13.00;11.57;;;;;;;4.57;70.67;93859.47;6168878;23;20170;-63
2022/01/09 07:11:40;;;;;;;13.33;11.57;;;;;;;4.67;70.55;93851.63;6167516;23;20236;-61
2022/01/09 07:14:06;;;;;;;13.83;11.57;;;;;;;4.66;70.42;93850.81;6168762;23;20209;-61
2022/01/09 07:16:32;;;;;;;15.10;11.07;;;;;;;4.65;70.31;93851.75;6167424;23;20206;-61
2022/01/09 07:18:57;;;;;;;13.33;10.50;;;;;;;4.74;69.64;93858.72;6167862;23;20206;-62
2022/01/09 07:21:23;;;;;;;11.73;10.53;;;;;;;4.79;69.40;93868.69;6168335;23;20190;-61
2022/01/09 07:23:48;;;;;;;14.67;10.67;;;;;;;4.72;69.68;93873.66;6168324;23;20197;-61
2022/01/09 07:26:14;;;;;;;11.90;10.67;;;;;;;5.09;68.42;93875.38;6168040;23;20194;-61
2022/01/09 07:28:39;;;;;;;13.23;11.57;;;;;;;5.16;68.26;93879.03;6167428;23;20295;-61
2022/01/09 07:31:05;;;;;;;13.13;11.03;;;;;;;5.13;68.75;93876.72;6167646;23;20199;-61
2022/01/09 07:33:30;;;;;;;14.07;11.37;;;;;;;5.11;68.85;93878.66;6167732;23;20197;-60
2022/01/09 07:35:56;;;;;;;16.37;11.73;;;;;;;5.08;68.62;93881.56;6194582;23;20181;-61
2022/01/09 07:38:22;;;;;;;14.60;12.10;;;;;;;5.31;67.68;93893.19;6167805;23;20212;-61
2022/01/09 07:40:47;;;;;;;15.93;11.90;;;;;;;5.25;67.82;93878.16;6167591;23;20216;-64
2022/01/09 07:43:13;;;;;;;13.63;12.03;;;;;;;5.45;67.56;93875.41;6167889;23;20270;-63
2022/01/09 07:45:39;;;;;;;16.00;12.00;;;;;;;5.52;66.96;93877.28;6193715;23;20178;-62
2022/01/09 07:48:06;;;;;;;15.33;11.77;;;;;;;5.56;67.16;93877.81;6194301;23;20178;-61
2022/01/09 07:50:32;;;;;;;14.37;10.40;;;;;;;5.74;66.57;93868.16;6166060;23;20198;-62
2022/01/09 07:52:57;;;;;;;12.60;10.27;;;;;;;6.01;65.56;93866.44;6165605;23;20209;-62
2022/01/09 07:55:23;;;;;;;10.10;8.70;;;;;;;6.27;64.27;93856.00;6167883;23;20206;-62
2022/01/09 07:57:50;;;;;;;9.73;8.60;;;;;;;6.35;64.17;93853.44;6193340;23;20190;-62
2022/01/09 08:00:17;;;;;;;8.83;7.43;;;;;;;6.61;63.27;93860.47;6168197;23;20186;-62
2022/01/09 08:02:44;;;;;;;7.97;6.87;;;;;;;6.71;62.58;93853.31;6167171;23;20237;-61
2022/01/09 08:05:11;;;;;;;7.90;6.40;;;;;;;6.70;62.51;93841.22;6169611;23;20221;-62
2022/01/09 08:07:37;;;;;;;7.13;6.30;;;;;;;6.90;62.25;93843.59;6169568;23;20283;-62
2022/01/09 08:10:04;;;;;;;7.00;6.07;;;;;;;7.15;61.12;93845.28;6195475;23;20201;-62
2022/01/09 08:12:30;;;;;;;6.47;5.80;;;;;;;7.29;60.39;93851.69;6194060;23;20178;-62
2022/01/09 08:14:55;;;;;;;9.03;6.13;;;;;;;7.25;59.84;93832.09;6168004;23;20197;-61
2022/01/09 08:17:21;;;;;;;7.53;6.47;;;;;;;7.31;60.29;93844.50;6167227;23;20247;-62
2022/01/09 08:19:47;;;;;;;8.67;6.10;;;;;;;7.32;60.09;93835.69;6167894;23;20201;-62
2022/01/09 08:22:12;;;;;;;7.17;5.77;;;;;;;7.24;59.91;93812.97;6168182;23;20221;-63
2022/01/09 08:24:39;;;;;;;6.13;5.53;;;;;;;7.09;60.96;93816.38;6168987;23;20185;-62
2022/01/09 08:27:05;;;;;;;5.40;4.67;;;;;;;6.94;61.13;93810.94;6196320;23;20245;-62
2022/01/09 08:29:31;;;;;;;5.60;4.87;;;;;;;6.83;61.28;93812.03;6170523;23;20198;-62
2022/01/09 08:31:56;;;;;;;6.17;5.00;;;;;;;7.06;61.42;93818.31;6195355;23;20201;-62
2022/01/09 08:34:22;;;;;;;5.73;5.07;;;;;;;7.13;61.29;93813.25;6169744;23;20194;-62
2022/01/09 08:36:47;;;;;;;6.50;5.67;;;;;;;7.20;60.98;93813.44;6169266;23;20213;-62
2022/01/09 08:39:13;;;;;;;7.03;5.43;;;;;;;7.19;60.67;93811.78;6170603;23;20190;-63
2022/01/09 08:41:39;;;;;;;6.83;5.10;;;;;;;7.07;61.46;93809.50;6169997;23;20193;-61
2022/01/09 08:44:06;;;;;;;5.90;5.03;;;;;;;7.10;61.12;93803.13;6193991;23;20201;-61
2022/01/09 08:46:34;;;;;;;7.03;6.07;;;;;;;7.19;60.92;93807.41;6170944;23;20209;-61
2022/01/09 08:49:00;;;;;;;8.33;6.20;;;;;;;7.08;61.66;93815.53;6170085;23;20229;-62
2022/01/09 08:51:27;;;;;;;8.50;7.40;;;;;;;7.07;61.85;93808.69;6169548;23;20220;-63
2022/01/09 08:53:52;;;;;;;7.47;6.67;;;;;;;7.11;61.43;93809.16;6195169;23;20170;-62
2022/01/09 08:56:19;;;;;;;8.67;7.17;;;;;;;7.12;61.89;93818.66;6194313;23;20209;-62
2022/01/09 08:58:45;;;;;;;9.10;7.93;;;;;;;7.22;62.11;93811.50;6169010;23;20198;-62
2022/01/09 09:01:10;;;;;;;10.63;8.47;;;;;;;7.35;61.58;93796.16;6169079;23;20208;-63
2022/01/09 09:03:40;;;;;;;8.97;8.03;;;;;;;7.39;61.33;93802.69;6169930;23;20229;-63
2022/01/09 09:06:15;;;;;;;8.90;6.63;;;;;;;7.56;60.69;93800.06;6195592;23;20174;-62
2022/01/09 09:08:42;;;;;;;8.90;7.97;;;;;;;7.54;60.48;93788.94;6193739;23;20239;-62
2022/01/09 09:11:10;;;;;;;9.23;7.43;;;;;;;7.71;60.55;93774.91;6193759;23;20198;-62
2022/01/09 09:13:36;;;;;;;9.30;7.63;;;;;;;7.76;59.76;93770.00;6193927;23;20276;-62
2022/01/09 09:16:05;;;;;;;8.60;7.27;;;;;;;8.10;58.89;93774.16;6193248;23;20205;-63
2022/01/09 09:18:31;;;;;;;6.23;5.20;;;;;;;8.25;57.75;93777.75;6194586;23;20186;-61
2022/01/09 09:20:58;;;;;;;6.73;4.67;;;;;;;8.45;57.53;93772.16;6195014;23;20201;-61
2022/01/09 09:23:23;;;;;;;8.27;5.20;;;;;;;8.60;56.66;93770.47;6195530;23;20250;-60
2022/01/09 09:25:50;;;;;;;5.60;4.73;;;;;;;8.71;56.13;93750.91;6169265;23;20201;-62
2022/01/09 09:28:15;;;;;;;6.83;4.97;;;;;;;8.84;55.83;93749.38;6194217;23;20276;-61
2022/01/09 09:30:41;;;;;;;5.10;4.30;;;;;;;8.84;55.82;93757.22;6193659;23;20205;-62
2022/01/09 09:33:07;;;;;;;5.97;4.47;;;;;;;8.78;55.66;93738.78;6195581;23;20177;-62
2022/01/09 09:35:33;;;;;;;5.47;4.80;;;;;;;8.80;55.49;93729.75;6193790;23;20205;-62
2022/01/09 09:38:00;;;;;;;5.80;4.57;;;;;;;8.55;55.86;93728.22;6195631;23;20198;-63
2022/01/09 09:40:26;;;;;;;4.43;4.00;;;;;;;8.50;56.20;93722.69;6195661;23;20205;-62
2022/01/09 09:42:53;;;;;;;5.67;4.37;;;;;;;8.34;56.61;93713.91;6194982;23;20205;-62
2022/01/09 09:45:19;;;;;;;5.57;5.03;;;;;;;8.30;56.96;93717.00;6194561;23;20174;-62
2022/01/09 09:47:44;;;;;;;6.00;5.40;;;;;;;8.20;57.36;93717.19;6168221;23;20208;-64
2022/01/09 09:50:14;;;;;;;6.90;5.80;;;;;;;8.15;57.49;93714.28;6195169;23;20191;-62
2022/01/09 09:52:44;;;;;;;5.67;5.17;;;;;;;8.14;57.59;93707.41;6194712;23;20205;-64
2022/01/09 09:55:10;;;;;;;5.13;4.63;;;;;;;8.24;57.56;93712.47;6194358;23;20251;-62
2022/01/09 09:57:36;;;;;;;5.57;4.97;;;;;;;8.24;57.96;93708.03;6169896;23;20174;-64
2022/01/09 10:00:14;;;;;;;5.47;4.93;;;;;;;8.30;57.46;93707.34;6169028;23;20190;-62
2022/01/09 10:02:42;;;;;;;5.73;5.23;;;;;;;8.27;57.68;93707.69;6194646;23;20205;-63
2022/01/09 10:05:08;;;;;;;6.27;4.97;;;;;;;8.30;57.50;93696.88;6194787;23;20205;-63
2022/01/09 10:07:34;;;;;;;5.10;4.60;;;;;;;8.46;57.10;93695.22;6168386;23;20214;-62
2022/01/09 10:10:09;;;;;;;5.97;5.37;;;;;;;8.39;57.43;93697.69;6168375;23;20198;-62
2022/01/09 10:12:36;;;;;;;5.40;4.90;;;;;;;8.57;57.13;93694.81;6194728;23;20208;-63
2022/01/09 10:15:08;;;;;;;8.43;5.70;;;;;;;8.45;57.35;93688.34;6194724;23;20178;-63
2022/01/09 10:17:34;;;;;;;7.00;5.43;;;;;;;8.36;58.17;93685.72;6169133;23;20221;-63
2022/01/09 10:20:11;;;;;;;6.43;5.60;;;;;;;8.22;58.31;93689.06;6193260;23;20202;-62
2022/01/09 10:22:46;;;;;;;7.80;6.03;;;;;;;8.23;58.64;93688.06;6193097;23;20197;-63
2022/01/09 10:25:17;;;;;;;6.47;5.70;;;;;;;8.38;58.67;93688.97;6191504;23;20205;-61
2022/01/09 10:27:44;;;;;;;8.27;6.90;;;;;;;8.49;58.55;93687.00;6167303;23;20261;-62
2022/01/09 10:30:10;;;;;;;8.60;6.20;;;;;;;8.52;58.35;93679.59;6193482;23;20170;-63
2022/01/09 10:32:36;;;;;;;8.37;6.37;;;;;;;8.57;58.48;93681.72;6193495;23;20225;-63
2022/01/09 10:35:12;;;;;;;8.77;6.80;;;;;;;8.50;57.97;93671.13;6167448;23;20231;-63
2022/01/09 10:37:40;;;;;;;9.70;6.33;;;;;;;8.56;57.90;93672.25;6167587;23;20248;-64
2022/01/09 10:40:08;;;;;;;11.00;7.00;;;;;;;8.60;57.64;93676.13;6192530;23;20213;-63
2022/01/09 10:42:35;;;;;;;7.77;6.50;;;;;;;8.41;58.17;93666.09;6167191;23;20186;-67
2022/01/09 10:45:22;;;;;;;7.50;6.43;;;;;;;8.46;57.97;93653.28;6168402;23;20189;-63
2022/01/09 10:47:48;;;;;;;7.93;6.43;;;;;;;8.45;57.78;93649.06;6168066;23;20209;-63
2022/01/09 10:50:44;;;;;;;7.67;6.83;;;;;;;8.54;57.74;93655.88;6193777;23;20202;-63
2022/01/09 10:53:17;;;;;;;7.40;6.50;;;;;;;8.63;57.60;93660.06;6074334;23;20223;-62
2022/01/09 10:55:43;;;;;;;7.10;6.40;;;;;;;8.64;57.29;93651.22;6074665;23;20320;-62
2022/01/09 10:58:19;;;;;;;7.13;6.37;;;;;;;8.61;57.26;93641.09;6073733;23;20285;-64
2022/01/09 11:00:46;;;;;;;7.60;6.47;;;;;;;8.67;57.01;93648.25;6074043;23;20208;-63
2022/01/09 11:03:12;;;;;;;7.93;6.43;;;;;;;8.77;57.07;93643.59;6075660;23;20184;-63
2022/01/09 11:05:38;;;;;;;8.93;6.77;;;;;;;8.83;56.48;93642.91;6074620;23;20211;-61
2022/01/09 11:08:04;;;;;;;9.97;6.23;;;;;;;8.84;56.57;93639.28;6073831;23;20247;-63
2022/01/09 11:10:31;;;;;;;8.47;6.63;;;;;;;8.80;57.03;93635.38;6074597;23;20216;-62
2022/01/09 11:12:59;;;;;;;7.60;6.37;;;;;;;8.93;56.26;93624.31;6050309;23;20204;-61
2022/01/09 11:15:29;;;;;;;6.70;6.10;;;;;;;9.12;55.84;93628.28;6074320;23;20216;-62
2022/01/09 11:17:58;;;;;;;7.57;6.30;;;;;;;9.15;55.57;93625.28;6074722;23;20193;-61
2022/01/09 11:20:24;;;;;;;8.20;5.73;;;;;;;9.22;55.27;93609.66;6050648;23;20242;-61
2022/01/09 11:22:53;;;;;;;7.27;6.33;;;;;;;9.33;54.93;93622.34;6074714;23;20207;-63
2022/01/09 11:25:49;;;;;;;6.83;5.63;;;;;;;9.54;53.98;93621.63;6075191;23;20252;-64
2022/01/09 11:28:27;;;;;;;6.83;6.10;;;;;;;9.61;53.85;93616.50;6049252;23;20291;-62
2022/01/09 11:31:44;;;;;;;7.13;6.43;;;;;;;9.67;53.70;93611.31;6193463;23;20194;-62